Perez Atmospheric Data: 07/12/2018 Summary  Detailed Graphs  Station List

  Temperature     Wind Precipitation Visibility
Timestamp Air Wet
Bulb
Dew-
point
24-hr
Max
24-hr
Min
Relative
Humidity
Atmospheric
Pressure
Avg
Speed
Avg
Dir
Spot
Speed
Spot
Dir
Max
Speed
Max
Dir
  Rate Situation Start End 1 hr 3 hr 6 hr 12 hr 24 hr   Situation
Date Time °F °F °F °F °F % in Hg mph ° mph ° mph ° Y/N in/hr text Date Time Date Time in in in in in mi text
07/12/2018 12:00 AM 61.34 50.36 39.56 91.58 55.22 44.0 Not Reported 2.46 SE 2.24 E 2.01 SE No 0.000 No Precipitation 06/18/2018 03:55 AM 06/18/2018 04:00 AM 0.000 0.000 0.000 0.000 0.000 Not Reported Not Reported
07/12/2018 12:05 AM 62.24 50.72 39.56 91.58 55.22 42.0 Not Reported 2.46 SE 2.68 SE 2.01 SE No 0.000 No Precipitation 06/18/2018 03:55 AM 06/18/2018 04:00 AM 0.000 0.000 0.000 0.000 0.000 Not Reported Not Reported
07/12/2018 12:10 AM 63.32 50.90 39.02 91.58 55.22 41.0 Not Reported 2.01 SE 1.57 SE 2.91 SE No 0.000 No Precipitation 06/18/2018 03:55 AM 06/18/2018 04:00 AM 0.000 0.000 0.000 0.000 0.000 Not Reported Not Reported
07/12/2018 12:15 AM 61.52 50.36 39.20 91.58 55.22 42.0 Not Reported 1.34 SE 1.34 SE 2.91 SE No 0.000 No Precipitation 06/18/2018 03:55 AM 06/18/2018 04:00 AM 0.000 0.000 0.000 0.000 0.000 Not Reported Not Reported
07/12/2018 12:20 AM 60.44 50.00 39.92 91.58 55.22 46.0 Not Reported 2.01 SE 2.01 E 2.24 SE No 0.000 No Precipitation 06/18/2018 03:55 AM 06/18/2018 04:00 AM 0.000 0.000 0.000 0.000 0.000 Not Reported Not Reported
07/12/2018 12:25 AM 60.44 50.18 40.46 91.58 55.22 46.0 Not Reported 2.68 E 1.79 E 2.24 SE No 0.000 No Precipitation 06/18/2018 03:55 AM 06/18/2018 04:00 AM 0.000 0.000 0.000 0.000 0.000 Not Reported Not Reported
07/12/2018 12:30 AM 61.88 50.72 40.10 91.58 55.22 44.0 Not Reported 2.01 E 1.57 E 2.91 E No 0.000 No Precipitation 06/18/2018 03:55 AM 06/18/2018 04:00 AM 0.000 0.000 0.000 0.000 0.000 Not Reported Not Reported
07/12/2018 12:35 AM 62.42 50.90 39.74 91.58 55.22 43.0 Not Reported 1.34 E 0.00 NE 2.91 E No 0.000 No Precipitation 06/18/2018 03:55 AM 06/18/2018 04:00 AM 0.000 0.000 0.000 0.000 0.000 Not Reported Not Reported
07/12/2018 12:40 AM 60.80 50.00 39.38 91.58 55.22 45.0 Not Reported 0.45 N 0.00 NW 2.46 E No 0.000 No Precipitation 06/18/2018 03:55 AM 06/18/2018 04:00 AM 0.000 0.000 0.000 0.000 0.000 Not Reported Not Reported
07/12/2018 12:45 AM 59.90 49.64 39.38 91.58 55.22 46.0 Not Reported 0.00 N 0.22 NW 2.46 E No 0.000 No Precipitation 06/18/2018 03:55 AM 06/18/2018 04:00 AM 0.000 0.000 0.000 0.000 0.000 Not Reported Not Reported
07/12/2018 12:50 AM 58.28 48.92 39.74 91.58 55.22 50.0 Not Reported 1.12 E 1.57 NE 0.89 NW No 0.000 No Precipitation 06/18/2018 03:55 AM 06/18/2018 04:00 AM 0.000 0.000 0.000 0.000 0.000 Not Reported Not Reported
07/12/2018 12:55 AM 58.64 49.10 39.56 91.58 55.22 48.0 Not Reported 1.57 NE 1.12 E 0.89 NW No 0.000 No Precipitation 06/18/2018 03:55 AM 06/18/2018 04:00 AM 0.000 0.000 0.000 0.000 0.000 Not Reported Not Reported
07/12/2018 01:00 AM 59.00 49.46 39.92 91.58 55.22 48.0 Not Reported 1.34 E 1.79 E 2.01 NE No 0.000 No Precipitation 06/18/2018 03:55 AM 06/18/2018 04:00 AM 0.000 0.000 0.000 0.000 0.000 Not Reported Not Reported
07/12/2018 01:05 AM 56.84 48.02 39.02 91.58 55.22 51.0 Not Reported 2.01 E 2.46 E 2.01 NE No 0.000 No Precipitation 06/18/2018 03:55 AM 06/18/2018 04:00 AM 0.000 0.000 0.000 0.000 0.000 Not Reported Not Reported
07/12/2018 01:10 AM 58.10 48.92 39.74 91.58 55.22 49.0 Not Reported 2.01 E 2.01 E 2.46 E No 0.000 No Precipitation 06/18/2018 03:55 AM 06/18/2018 04:00 AM 0.000 0.000 0.000 0.000 0.000 Not Reported Not Reported
07/12/2018 01:15 AM 58.46 49.10 39.92 91.58 55.22 49.0 Not Reported 1.79 E 3.13 NE 2.46 E No 0.000 No Precipitation 06/18/2018 03:55 AM 06/18/2018 04:00 AM 0.000 0.000 0.000 0.000 0.000 Not Reported Not Reported
07/12/2018 01:20 AM 57.92 48.92 39.56 91.58 55.22 49.0 Not Reported 2.46 NE 3.80 NE 3.58 NE No 0.000 No Precipitation 06/18/2018 03:55 AM 06/18/2018 04:00 AM 0.000 0.000 0.000 0.000 0.000 Not Reported Not Reported
07/12/2018 01:25 AM 59.36 49.46 39.74 91.58 55.22 47.0 Not Reported 3.58 NE 2.91 NE 3.58 NE No 0.000 No Precipitation 06/18/2018 03:55 AM 06/18/2018 04:00 AM 0.000 0.000 0.000 0.000 0.000 Not Reported Not Reported
07/12/2018 01:30 AM 60.80 50.00 39.56 91.58 55.22 45.0 Not Reported 2.01 E 1.57 E 4.47 NE No 0.000 No Precipitation 06/18/2018 03:55 AM 06/18/2018 04:00 AM 0.000 0.000 0.000 0.000 0.000 Not Reported Not Reported
07/12/2018 01:35 AM 59.18 49.10 39.02 91.58 55.22 48.0 Not Reported 2.24 NE 3.13 N 4.47 NE No 0.000 No Precipitation 06/18/2018 03:55 AM 06/18/2018 04:00 AM 0.000 0.000 0.000 0.000 0.000 Not Reported Not Reported
07/12/2018 01:40 AM 60.26 49.64 39.38 91.58 55.22 46.0 Not Reported 2.01 NE 2.68 N 3.58 E No 0.000 No Precipitation 06/18/2018 03:55 AM 06/18/2018 04:00 AM 0.000 0.000 0.000 0.000 0.000 Not Reported Not Reported
07/12/2018 01:45 AM 59.90 49.82 39.38 91.58 55.22 46.0 Not Reported 3.13 NE 2.24 NE 3.58 E No 0.000 No Precipitation 06/18/2018 03:55 AM 06/18/2018 04:00 AM 0.000 0.000 0.000 0.000 0.000 Not Reported Not Reported
07/12/2018 01:50 AM 60.08 49.82 39.92 91.58 55.22 46.0 Not Reported 2.68 NE 3.13 NE 3.80 NE No 0.000 No Precipitation 06/18/2018 03:55 AM 06/18/2018 04:00 AM 0.000 0.000 0.000 0.000 0.000 Not Reported Not Reported
07/12/2018 01:55 AM 57.20 48.20 39.20 91.58 55.22 51.0 Not Reported 2.68 NE 2.01 E 3.80 NE No 0.000 No Precipitation 06/18/2018 03:55 AM 06/18/2018 04:00 AM 0.000 0.000 0.000 0.000 0.000 Not Reported Not Reported
07/12/2018 02:00 AM 57.38 48.56 39.74 91.58 55.22 50.0 Not Reported 3.36 NE 4.03 NE 3.58 NE No 0.000 No Precipitation 06/18/2018 03:55 AM 06/18/2018 04:00 AM 0.000 0.000 0.000 0.000 0.000 Not Reported Not Reported
07/12/2018 02:05 AM 60.08 49.82 39.92 91.58 55.22 46.0 Not Reported 3.80 NE 3.80 NE 3.58 NE No 0.000 No Precipitation 06/18/2018 03:55 AM 06/18/2018 04:00 AM 0.000 0.000 0.000 0.000 0.000 Not Reported Not Reported
07/12/2018 02:10 AM 61.16 50.18 39.74 91.58 55.22 45.0 Not Reported 3.13 NE 2.24 NE 4.70 NE No 0.000 No Precipitation 06/18/2018 03:55 AM 06/18/2018 04:00 AM 0.000 0.000 0.000 0.000 0.000 Not Reported Not Reported
07/12/2018 02:15 AM 62.42 51.08 40.46 91.58 55.22 44.0 Not Reported 3.80 NE 5.37 NW 4.70 NE No 0.000 No Precipitation 06/18/2018 03:55 AM 06/18/2018 04:00 AM 0.000 0.000 0.000 0.000 0.000 Not Reported Not Reported
07/12/2018 02:20 AM 60.98 50.36 40.10 91.58 55.22 46.0 Not Reported 2.46 NE 2.46 E 5.37 NW No 0.000 No Precipitation 06/18/2018 03:55 AM 06/18/2018 04:00 AM 0.000 0.000 0.000 0.000 0.000 Not Reported Not Reported
07/12/2018 02:25 AM 62.06 50.90 40.28 91.58 55.22 45.0 Not Reported 2.46 NE 2.24 N 5.37 NW No 0.000 No Precipitation 06/18/2018 03:55 AM 06/18/2018 04:00 AM 0.000 0.000 0.000 0.000 0.000 Not Reported Not Reported
07/12/2018 02:30 AM 62.60 51.44 40.82 91.58 55.22 44.0 Not Reported 1.79 N 1.57 N 3.36 NE No 0.000 No Precipitation 06/18/2018 03:55 AM 06/18/2018 04:00 AM 0.000 0.000 0.000 0.000 0.000 Not Reported Not Reported
07/12/2018 02:35 AM 61.88 50.72 40.28 91.58 55.22 45.0 Not Reported 2.24 N 3.58 N 3.36 NE No 0.000 No Precipitation 06/18/2018 03:55 AM 06/18/2018 04:00 AM 0.000 0.000 0.000 0.000 0.000 Not Reported Not Reported
07/12/2018 02:40 AM 61.16 50.54 40.64 91.58 55.22 47.0 Not Reported 1.57 N 2.24 N 3.58 N No 0.000 No Precipitation 06/18/2018 03:55 AM 06/18/2018 04:00 AM 0.000 0.000 0.000 0.000 0.000 Not Reported Not Reported
07/12/2018 02:45 AM 62.60 51.62 41.54 91.58 55.22 45.0 Not Reported 2.24 NW 1.79 N 3.58 N No 0.000 No Precipitation 06/18/2018 03:55 AM 06/18/2018 04:00 AM 0.000 0.000 0.000 0.000 0.000 Not Reported Not Reported
07/12/2018 02:50 AM 61.34 50.72 39.92 91.58 55.22 45.0 Not Reported 1.79 N 2.24 N 3.13 NW No 0.000 No Precipitation 06/18/2018 03:55 AM 06/18/2018 04:00 AM 0.000 0.000 0.000 0.000 0.000 Not Reported Not Reported
07/12/2018 02:55 AM 60.08 50.00 40.46 91.58 55.22 48.0 Not Reported 1.57 N 2.24 NW 3.13 NW No 0.000 No Precipitation 06/18/2018 03:55 AM 06/18/2018 04:00 AM 0.000 0.000 0.000 0.000 0.000 Not Reported Not Reported
07/12/2018 03:00 AM 61.34 50.90 41.00 91.58 55.22 46.0 Not Reported 1.12 N 2.68 NW 2.68 N No 0.000 No Precipitation 06/18/2018 03:55 AM 06/18/2018 04:00 AM 0.000 0.000 0.000 0.000 0.000 Not Reported Not Reported
07/12/2018 03:05 AM 62.42 51.44 41.36 91.58 55.22 45.0 Not Reported 1.57 NW 0.22 W 2.68 N No 0.000 No Precipitation 06/18/2018 03:55 AM 06/18/2018 04:00 AM 0.000 0.000 0.000 0.000 0.000 Not Reported Not Reported
07/12/2018 03:10 AM 62.24 51.26 40.82 91.58 55.22 45.0 Not Reported 1.34 N 2.24 N 2.68 NW No 0.000 No Precipitation 06/18/2018 03:55 AM 06/18/2018 04:00 AM 0.000 0.000 0.000 0.000 0.000 Not Reported Not Reported
07/12/2018 03:15 AM 61.34 50.54 40.10 91.58 55.22 46.0 Not Reported 1.57 N 2.46 N 2.68 NW No 0.000 No Precipitation 06/18/2018 03:55 AM 06/18/2018 04:00 AM 0.000 0.000 0.000 0.000 0.000 Not Reported Not Reported
07/12/2018 03:20 AM 60.98 50.54 40.46 91.58 55.22 47.0 Not Reported 3.58 N 3.13 N 3.36 N No 0.000 No Precipitation 06/18/2018 03:55 AM 06/18/2018 04:00 AM 0.000 0.000 0.000 0.000 0.000 Not Reported Not Reported
07/12/2018 03:25 AM 60.80 50.36 40.28 91.58 55.22 47.0 Not Reported 2.68 N 3.13 N 3.36 N No 0.000 No Precipitation 06/18/2018 03:55 AM 06/18/2018 04:00 AM 0.000 0.000 0.000 0.000 0.000 Not Reported Not Reported
07/12/2018 03:30 AM 59.72 49.82 40.28 91.58 55.22 48.0 Not Reported 3.13 N 3.13 N 4.47 N No 0.000 No Precipitation 06/18/2018 03:55 AM 06/18/2018 04:00 AM 0.000 0.000 0.000 0.000 0.000 Not Reported Not Reported
07/12/2018 03:35 AM 59.18 49.64 40.28 91.58 55.22 49.0 Not Reported 2.68 N 2.91 NE 4.47 N No 0.000 No Precipitation 06/18/2018 03:55 AM 06/18/2018 04:00 AM 0.000 0.000 0.000 0.000 0.000 Not Reported Not Reported
07/12/2018 03:40 AM 58.10 49.28 40.64 91.58 55.22 51.0 Not Reported 2.91 N 2.91 N 4.03 N No 0.000 No Precipitation 06/18/2018 03:55 AM 06/18/2018 04:00 AM 0.000 0.000 0.000 0.000 0.000 Not Reported Not Reported
07/12/2018 03:45 AM 58.10 49.10 40.28 91.58 55.22 50.0 Not Reported 2.68 NE 3.13 N 4.03 N No 0.000 No Precipitation 06/18/2018 03:55 AM 06/18/2018 04:00 AM 0.000 0.000 0.000 0.000 0.000 Not Reported Not Reported
07/12/2018 03:50 AM 57.56 48.56 39.56 91.58 55.22 51.0 Not Reported 3.13 N 3.80 N 3.36 N No 0.000 No Precipitation 06/18/2018 03:55 AM 06/18/2018 04:00 AM 0.000 0.000 0.000 0.000 0.000 Not Reported Not Reported
07/12/2018 03:55 AM 57.02 48.38 39.74 91.58 55.22 51.0 Not Reported 2.68 N 2.68 N 3.36 N No 0.000 No Precipitation 06/18/2018 03:55 AM 06/18/2018 04:00 AM 0.000 0.000 0.000 0.000 0.000 Not Reported Not Reported
07/12/2018 04:00 AM 57.20 48.56 39.92 91.58 55.22 52.0 Not Reported 2.68 N 2.68 N 4.25 N No 0.000 No Precipitation 06/18/2018 03:55 AM 06/18/2018 04:00 AM 0.000 0.000 0.000 0.000 0.000 Not Reported Not Reported
07/12/2018 04:05 AM 56.84 48.02 39.20 91.58 55.22 52.0 Not Reported 2.91 N 2.91 N 4.25 N No 0.000 No Precipitation 06/18/2018 03:55 AM 06/18/2018 04:00 AM 0.000 0.000 0.000 0.000 0.000 Not Reported Not Reported
07/12/2018 04:10 AM 56.48 48.02 39.74 91.58 55.22 52.0 Not Reported 2.46 NE 2.24 NE 3.58 N No 0.000 No Precipitation 06/18/2018 03:55 AM 06/18/2018 04:00 AM 0.000 0.000 0.000 0.000 0.000 Not Reported Not Reported
07/12/2018 04:15 AM 55.40 47.66 39.92 91.58 55.22 55.0 Not Reported 2.68 N 2.46 NE 3.58 N No 0.000 No Precipitation 06/18/2018 03:55 AM 06/18/2018 04:00 AM 0.000 0.000 0.000 0.000 0.000 Not Reported Not Reported
07/12/2018 04:20 AM 55.22 47.48 39.74 91.58 55.22 55.0 Not Reported 2.91 NE 2.46 NE 3.13 NE No 0.000 No Precipitation 06/18/2018 03:55 AM 06/18/2018 04:00 AM 0.000 0.000 0.000 0.000 0.000 Not Reported Not Reported
07/12/2018 04:25 AM 54.86 47.30 39.56 91.58 55.22 56.0 Not Reported 2.68 N 2.68 N 3.13 NE No 0.000 No Precipitation 06/18/2018 03:55 AM 06/18/2018 04:00 AM 0.000 0.000 0.000 0.000 0.000 Not Reported Not Reported
07/12/2018 04:30 AM 54.32 46.94 39.38 91.58 55.22 55.0 Not Reported 2.46 N 2.68 NE 3.36 N No 0.000 No Precipitation 06/18/2018 03:55 AM 06/18/2018 04:00 AM 0.000 0.000 0.000 0.000 0.000 Not Reported Not Reported
07/12/2018 04:35 AM 54.86 47.30 39.74 91.58 55.22 56.0 Not Reported 2.46 NE 3.36 N 3.36 N No 0.000 No Precipitation 06/18/2018 03:55 AM 06/18/2018 04:00 AM 0.000 0.000 0.000 0.000 0.000 Not Reported Not Reported
07/12/2018 04:40 AM 55.22 47.30 39.38 91.58 55.22 55.0 Not Reported 3.13 NE 2.46 N 3.36 N No 0.000 No Precipitation 06/18/2018 03:55 AM 06/18/2018 04:00 AM 0.000 0.000 0.000 0.000 0.000 Not Reported Not Reported
07/12/2018 04:45 AM 55.58 47.66 39.56 91.58 55.22 54.0 Not Reported 2.91 N 2.91 N 3.36 N No 0.000 No Precipitation 06/18/2018 03:55 AM 06/18/2018 04:00 AM 0.000 0.000 0.000 0.000 0.000 Not Reported Not Reported
07/12/2018 04:50 AM 54.68 47.12 39.56 91.58 55.22 55.0 Not Reported 3.36 N 3.13 NE 3.80 NE No 0.000 No Precipitation 06/18/2018 03:55 AM 06/18/2018 04:00 AM 0.000 0.000 0.000 0.000 0.000 Not Reported Not Reported
07/12/2018 04:55 AM 53.78 46.58 39.20 91.58 55.22 57.0 Not Reported 3.58 N 3.13 N 3.80 NE No 0.000 No Precipitation 06/18/2018 03:55 AM 06/18/2018 04:00 AM 0.000 0.000 0.000 0.000 0.000 Not Reported Not Reported
07/12/2018 05:00 AM 55.04 47.48 39.74 91.58 55.22 55.0 Not Reported 3.36 NE 4.25 N 3.80 N No 0.000 No Precipitation 06/18/2018 03:55 AM 06/18/2018 04:00 AM 0.000 0.000 0.000 0.000 0.000 Not Reported Not Reported
07/12/2018 05:05 AM 52.16 45.50 38.66 91.58 55.22 60.0 Not Reported 3.36 NE 2.46 NE 3.80 N No 0.000 No Precipitation 06/18/2018 03:55 AM 06/18/2018 04:00 AM 0.000 0.000 0.000 0.000 0.000 Not Reported Not Reported
07/12/2018 05:10 AM 51.62 45.14 38.12 91.58 55.22 60.0 Not Reported 3.13 NE 2.46 NE 4.25 N No 0.000 No Precipitation 06/18/2018 03:55 AM 06/18/2018 04:00 AM 0.000 0.000 0.000 0.000 0.000 Not Reported Not Reported
07/12/2018 05:15 AM 52.34 45.68 38.66 91.58 55.22 60.0 Not Reported 2.68 NE 2.91 NE 4.25 N No 0.000 No Precipitation 06/18/2018 03:55 AM 06/18/2018 04:00 AM 0.000 0.000 0.000 0.000 0.000 Not Reported Not Reported
07/12/2018 05:20 AM 51.62 45.32 38.30 91.58 55.22 60.0 Not Reported 2.91 NE 3.36 NE 3.80 NE No 0.000 No Precipitation 06/18/2018 03:55 AM 06/18/2018 04:00 AM 0.000 0.000 0.000 0.000 0.000 Not Reported Not Reported
07/12/2018 05:25 AM 52.34 45.86 39.20 91.58 55.22 60.0 Not Reported 3.13 NE 3.80 N 3.80 NE No 0.000 No Precipitation 06/18/2018 03:55 AM 06/18/2018 04:00 AM 0.000 0.000 0.000 0.000 0.000 Not Reported Not Reported
07/12/2018 05:30 AM 52.70 45.68 38.48 91.58 55.22 59.0 Not Reported 2.46 NE 3.13 NE 3.80 NE No 0.000 No Precipitation 06/18/2018 03:55 AM 06/18/2018 04:00 AM 0.000 0.000 0.000 0.000 0.000 Not Reported Not Reported
07/12/2018 05:35 AM 51.62 45.50 38.84 91.58 55.22 61.0 Not Reported 2.68 NE 1.34 NE 3.80 NE No 0.000 No Precipitation 06/18/2018 03:55 AM 06/18/2018 04:00 AM 0.000 0.000 0.000 0.000 0.000 Not Reported Not Reported
07/12/2018 05:40 AM 52.52 45.86 38.84 91.58 55.22 58.0 Not Reported 3.36 NE 2.91 N 3.58 NE No 0.000 No Precipitation 06/18/2018 03:55 AM 06/18/2018 04:00 AM 0.000 0.000 0.000 0.000 0.000 Not Reported Not Reported
07/12/2018 05:45 AM 53.06 46.04 38.84 91.58 55.22 58.0 Not Reported 3.58 N 3.58 N 3.58 NE No 0.000 No Precipitation 06/18/2018 03:55 AM 06/18/2018 04:00 AM 0.000 0.000 0.000 0.000 0.000 Not Reported Not Reported
07/12/2018 05:50 AM 52.70 45.86 38.84 91.58 55.22 58.0 Not Reported 3.13 N 4.25 NE 4.70 NE No 0.000 No Precipitation 06/18/2018 03:55 AM 06/18/2018 04:00 AM 0.000 0.000 0.000 0.000 0.000 Not Reported Not Reported
07/12/2018 05:55 AM 53.60 46.40 39.02 91.58 55.22 55.0 Not Reported 3.36 NE 3.13 N 4.70 NE No 0.000 No Precipitation 06/18/2018 03:55 AM 06/18/2018 04:00 AM 0.000 0.000 0.000 0.000 0.000 Not Reported Not Reported
07/12/2018 06:00 AM 52.70 46.22 39.38 91.58 55.22 59.0 Not Reported 3.36 N 2.68 NE 4.25 NE No 0.000 No Precipitation 06/18/2018 03:55 AM 06/18/2018 04:00 AM 0.000 0.000 0.000 0.000 0.000 Not Reported Not Reported
07/12/2018 06:05 AM 53.42 46.40 39.02 91.58 55.22 57.0 Not Reported 3.13 N 2.01 NE 4.25 NE No 0.000 No Precipitation 06/18/2018 03:55 AM 06/18/2018 04:00 AM 0.000 0.000 0.000 0.000 0.000 Not Reported Not Reported
07/12/2018 06:10 AM 52.70 45.86 38.48 91.58 55.22 58.0 Not Reported 2.68 NE 2.24 NE 3.80 N No 0.000 No Precipitation 06/18/2018 03:55 AM 06/18/2018 04:00 AM 0.000 0.000 0.000 0.000 0.000 Not Reported Not Reported
07/12/2018 06:15 AM 51.98 45.50 38.66 91.58 55.22 60.0 Not Reported 2.68 N 3.13 NE 3.80 N No 0.000 No Precipitation 06/18/2018 03:55 AM 06/18/2018 04:00 AM 0.000 0.000 0.000 0.000 0.000 Not Reported Not Reported
07/12/2018 06:20 AM 53.60 46.58 39.38 91.58 55.22 56.0 Not Reported 4.47 N 4.70 N 4.25 N No 0.000 No Precipitation 06/18/2018 03:55 AM 06/18/2018 04:00 AM 0.000 0.000 0.000 0.000 0.000 Not Reported Not Reported
07/12/2018 06:25 AM 57.92 48.92 40.28 91.58 55.22 51.0 Not Reported 5.59 N 2.24 NW 4.25 N No 0.000 No Precipitation 06/18/2018 03:55 AM 06/18/2018 04:00 AM 0.000 0.000 0.000 0.000 0.000 Not Reported Not Reported
07/12/2018 06:30 AM 58.28 49.10 40.10 91.58 55.22 50.0 Not Reported 3.80 N 2.01 N 7.16 N No 0.000 No Precipitation 06/18/2018 03:55 AM 06/18/2018 04:00 AM 0.000 0.000 0.000 0.000 0.000 Not Reported Not Reported
07/12/2018 06:35 AM 58.10 49.10 40.10 91.58 55.22 50.0 Not Reported 2.68 N 2.91 N 7.16 N No 0.000 No Precipitation 06/18/2018 03:55 AM 06/18/2018 04:00 AM 0.000 0.000 0.000 0.000 0.000 Not Reported Not Reported
07/12/2018 06:40 AM 54.14 46.58 38.84 91.58 55.22 56.0 Not Reported 3.80 N 2.91 N 4.25 N No 0.000 No Precipitation 06/18/2018 03:55 AM 06/18/2018 04:00 AM 0.000 0.000 0.000 0.000 0.000 Not Reported Not Reported
07/12/2018 06:45 AM 51.80 45.50 38.84 91.58 55.22 60.0 Not Reported 2.68 NE 2.91 N 4.25 N No 0.000 No Precipitation 06/18/2018 03:55 AM 06/18/2018 04:00 AM 0.000 0.000 0.000 0.000 0.000 Not Reported Not Reported
07/12/2018 06:50 AM 50.72 44.24 37.22 91.58 55.22 62.0 Not Reported 1.79 NE 2.01 NE 4.25 N No 0.000 No Precipitation 06/18/2018 03:55 AM 06/18/2018 04:00 AM 0.000 0.000 0.000 0.000 0.000 Not Reported Not Reported
07/12/2018 06:55 AM 49.28 43.70 37.76 91.58 55.22 65.0 Not Reported 2.01 NE 1.79 NE 4.25 N No 0.000 No Precipitation 06/18/2018 03:55 AM 06/18/2018 04:00 AM 0.000 0.000 0.000 0.000 0.000 Not Reported Not Reported
07/12/2018 07:00 AM 48.02 43.16 37.58 91.58 55.22 66.0 Not Reported 2.24 NE 2.24 NE 2.91 NE No 0.000 No Precipitation 06/18/2018 03:55 AM 06/18/2018 04:00 AM 0.000 0.000 0.000 0.000 0.000 Not Reported Not Reported
07/12/2018 07:05 AM 49.64 44.60 39.20 91.58 55.22 64.0 Not Reported 2.46 NE 2.68 NE 2.91 NE No 0.000 No Precipitation 06/18/2018 03:55 AM 06/18/2018 04:00 AM 0.000 0.000 0.000 0.000 0.000 Not Reported Not Reported
07/12/2018 07:10 AM 49.46 44.06 37.94 91.58 55.22 64.0 Not Reported 2.01 NE 2.24 NE 3.36 NE No 0.000 No Precipitation 06/18/2018 03:55 AM 06/18/2018 04:00 AM 0.000 0.000 0.000 0.000 0.000 Not Reported Not Reported
07/12/2018 07:15 AM 51.26 45.32 38.84 91.58 55.22 61.0 Not Reported 2.46 NE 3.13 NE 3.36 NE No 0.000 No Precipitation 06/18/2018 03:55 AM 06/18/2018 04:00 AM 0.000 0.000 0.000 0.000 0.000 Not Reported Not Reported
07/12/2018 07:20 AM 49.46 44.06 38.12 91.58 55.22 65.0 Not Reported 2.68 NE 2.68 NE 3.13 NE No 0.000 No Precipitation 06/18/2018 03:55 AM 06/18/2018 04:00 AM 0.000 0.000 0.000 0.000 0.000 Not Reported Not Reported
07/12/2018 07:25 AM 49.82 44.42 38.48 91.58 55.22 64.0 Not Reported 2.46 NE 2.68 NE 3.13 NE No 0.000 No Precipitation 06/18/2018 03:55 AM 06/18/2018 04:00 AM 0.000 0.000 0.000 0.000 0.000 Not Reported Not Reported
07/12/2018 07:30 AM 49.82 44.42 38.66 91.58 55.22 65.0 Not Reported 2.24 NE 2.46 E 2.91 NE No 0.000 No Precipitation 06/18/2018 03:55 AM 06/18/2018 04:00 AM 0.000 0.000 0.000 0.000 0.000 Not Reported Not Reported
07/12/2018 07:35 AM 51.26 45.32 39.20 91.58 55.22 63.0 Not Reported 2.24 E 2.24 E 2.91 NE No 0.000 No Precipitation 06/18/2018 03:55 AM 06/18/2018 04:00 AM 0.000 0.000 0.000 0.000 0.000 Not Reported Not Reported
07/12/2018 07:40 AM 52.52 46.22 39.74 91.58 55.22 61.0 Not Reported 2.24 NE 2.46 NE 2.68 NE No 0.000 No Precipitation 06/18/2018 03:55 AM 06/18/2018 04:00 AM 0.000 0.000 0.000 0.000 0.000 Not Reported Not Reported
07/12/2018 07:45 AM 53.06 46.76 40.10 91.58 55.22 61.0 Not Reported 2.68 E 2.46 NE 2.68 NE No 0.000 No Precipitation 06/18/2018 03:55 AM 06/18/2018 04:00 AM 0.000 0.000 0.000 0.000 0.000 Not Reported Not Reported
07/12/2018 07:50 AM 54.32 47.30 40.64 91.58 55.22 60.0 Not Reported 2.46 NE 2.24 NE 2.91 NE No 0.000 No Precipitation 06/18/2018 03:55 AM 06/18/2018 04:00 AM 0.000 0.000 0.000 0.000 0.000 Not Reported Not Reported
07/12/2018 07:55 AM 55.76 48.38 41.00 91.58 55.22 57.0 Not Reported 2.24 NE 2.91 NE 2.91 NE No 0.000 No Precipitation 06/18/2018 03:55 AM 06/18/2018 04:00 AM 0.000 0.000 0.000 0.000 0.000 Not Reported Not Reported
07/12/2018 08:00 AM 58.64 49.82 41.72 91.58 55.22 53.0 Not Reported 2.46 NE 2.24 NE 3.13 NE No 0.000 No Precipitation 06/18/2018 03:55 AM 06/18/2018 04:00 AM 0.000 0.000 0.000 0.000 0.000 Not Reported Not Reported
07/12/2018 08:05 AM 60.80 51.08 42.26 91.58 55.22 50.0 Not Reported 2.24 NE 2.24 NE 3.13 NE No 0.000 No Precipitation 06/18/2018 03:55 AM 06/18/2018 04:00 AM 0.000 0.000 0.000 0.000 0.000 Not Reported Not Reported
07/12/2018 08:10 AM 62.60 51.98 42.26 91.58 55.22 47.0 Not Reported 2.68 NE 3.13 NE 2.91 NE No 0.000 No Precipitation 06/18/2018 03:55 AM 06/18/2018 04:00 AM 0.000 0.000 0.000 0.000 0.000 Not Reported Not Reported
07/12/2018 08:15 AM 63.86 52.16 41.36 91.58 55.22 43.0 Not Reported 2.91 NE 2.91 NE 2.91 NE No 0.000 No Precipitation 06/18/2018 03:55 AM 06/18/2018 04:00 AM 0.000 0.000 0.000 0.000 0.000 Not Reported Not Reported
07/12/2018 08:20 AM 64.04 52.16 41.54 91.58 55.22 42.0 Not Reported 4.70 N 3.36 N 4.03 NE No 0.000 No Precipitation 06/18/2018 03:55 AM 06/18/2018 04:00 AM 0.000 0.000 0.000 0.000 0.000 Not Reported Not Reported
07/12/2018 08:25 AM 64.04 51.98 40.82 91.58 55.22 42.0 Not Reported 4.25 N 4.03 N 4.03 NE No 0.000 No Precipitation 06/18/2018 03:55 AM 06/18/2018 04:00 AM 0.000 0.000 0.000 0.000 0.000 Not Reported Not Reported
07/12/2018 08:30 AM 64.58 52.52 41.54 91.58 55.22 41.0 Not Reported 4.47 N 6.26 N 6.04 N No 0.000 No Precipitation 06/18/2018 03:55 AM 06/18/2018 04:00 AM 0.000 0.000 0.000 0.000 0.000 Not Reported Not Reported
07/12/2018 08:35 AM 65.30 52.70 41.54 91.58 55.22 42.0 Not Reported 3.80 N 4.03 N 6.04 N No 0.000 No Precipitation 06/18/2018 03:55 AM 06/18/2018 04:00 AM 0.000 0.000 0.000 0.000 0.000 Not Reported Not Reported
07/12/2018 08:40 AM 65.48 52.88 41.54 91.58 55.22 41.0 Not Reported 3.58 N 4.03 NE 6.26 N No 0.000 No Precipitation 06/18/2018 03:55 AM 06/18/2018 04:00 AM 0.000 0.000 0.000 0.000 0.000 Not Reported Not Reported
07/12/2018 08:45 AM 65.66 52.88 41.54 91.58 55.22 41.0 Not Reported 5.59 N 4.47 N 6.26 N No 0.000 No Precipitation 06/18/2018 03:55 AM 06/18/2018 04:00 AM 0.000 0.000 0.000 0.000 0.000 Not Reported Not Reported
07/12/2018 08:50 AM 66.56 53.42 41.90 91.58 55.22 39.0 Not Reported 3.58 N 2.91 N 7.16 N No 0.000 No Precipitation 06/18/2018 03:55 AM 06/18/2018 04:00 AM 0.000 0.000 0.000 0.000 0.000 Not Reported Not Reported
07/12/2018 08:55 AM 66.56 53.06 41.36 91.58 55.22 40.0 Not Reported 2.91 N 4.25 N 7.16 N No 0.000 No Precipitation 06/18/2018 03:55 AM 06/18/2018 04:00 AM 0.000 0.000 0.000 0.000 0.000 Not Reported Not Reported
07/12/2018 09:00 AM 67.46 53.42 41.18 91.58 55.22 38.0 Not Reported 3.36 N 2.24 N 5.37 N No 0.000 No Precipitation 06/18/2018 03:55 AM 06/18/2018 04:00 AM 0.000 0.000 0.000 0.000 0.000 Not Reported Not Reported
07/12/2018 09:05 AM 67.82 53.78 41.54 91.58 55.22 37.0 Not Reported 2.91 N 2.91 N 5.37 N No 0.000 No Precipitation 06/18/2018 03:55 AM 06/18/2018 04:00 AM 0.000 0.000 0.000 0.000 0.000 Not Reported Not Reported
07/12/2018 09:10 AM 67.64 53.42 40.82 91.58 55.22 38.0 Not Reported 3.58 N 2.68 N 4.92 N No 0.000 No Precipitation 06/18/2018 03:55 AM 06/18/2018 04:00 AM 0.000 0.000 0.000 0.000 0.000 Not Reported Not Reported
07/12/2018 09:15 AM 69.08 54.50 41.90 91.58 55.22 36.0 Not Reported 3.13 NE 2.68 NE 4.92 N No 0.000 No Precipitation 06/18/2018 03:55 AM 06/18/2018 04:00 AM 0.000 0.000 0.000 0.000 0.000 Not Reported Not Reported
07/12/2018 09:20 AM 69.08 54.68 42.44 91.58 55.22 36.0 Not Reported 1.57 N 1.79 N 4.70 N No 0.000 No Precipitation 06/18/2018 03:55 AM 06/18/2018 04:00 AM 0.000 0.000 0.000 0.000 0.000 Not Reported Not Reported
07/12/2018 09:25 AM 69.08 54.50 41.72 91.58 55.22 35.0 Not Reported 3.13 NW 3.58 N 4.70 N No 0.000 No Precipitation 06/18/2018 03:55 AM 06/18/2018 04:00 AM 0.000 0.000 0.000 0.000 0.000 Not Reported Not Reported
07/12/2018 09:30 AM 69.62 55.04 42.80 91.58 55.22 37.0 Not Reported 1.57 NW 2.01 W 3.80 NW No 0.000 No Precipitation 06/18/2018 03:55 AM 06/18/2018 04:00 AM 0.000 0.000 0.000 0.000 0.000 Not Reported Not Reported
07/12/2018 09:35 AM 71.42 55.22 41.36 91.58 55.22 35.0 Not Reported 2.01 N 0.45 W 3.80 NW No 0.000 No Precipitation 06/18/2018 03:55 AM 06/18/2018 04:00 AM 0.000 0.000 0.000 0.000 0.000 Not Reported Not Reported
07/12/2018 09:40 AM 70.16 55.04 42.26 91.58 55.22 36.0 Not Reported 1.79 NW 1.34 NW 3.36 NW No 0.000 No Precipitation 06/18/2018 03:55 AM 06/18/2018 04:00 AM 0.000 0.000 0.000 0.000 0.000 Not Reported Not Reported
07/12/2018 09:45 AM 71.60 55.40 41.54 91.58 55.22 33.0 Not Reported 0.89 N 1.12 NW 3.36 NW No 0.000 No Precipitation 06/18/2018 03:55 AM 06/18/2018 04:00 AM 0.000 0.000 0.000 0.000 0.000 Not Reported Not Reported
07/12/2018 09:50 AM 70.34 55.04 41.72 91.58 55.22 35.0 Not Reported 2.24 NW 3.13 N 2.46 N No 0.000 No Precipitation 06/18/2018 03:55 AM 06/18/2018 04:00 AM 0.000 0.000 0.000 0.000 0.000 Not Reported Not Reported
07/12/2018 09:55 AM 71.06 55.22 41.54 91.58 55.22 35.0 Not Reported 2.68 N 2.01 W 2.46 N No 0.000 No Precipitation 06/18/2018 03:55 AM 06/18/2018 04:00 AM 0.000 0.000 0.000 0.000 0.000 Not Reported Not Reported
07/12/2018 10:00 AM 71.96 55.40 41.36 91.58 55.22 32.0 Not Reported 4.47 NE 2.46 N 4.25 NW No 0.000 No Precipitation 06/18/2018 03:55 AM 06/18/2018 04:00 AM 0.000 0.000 0.000 0.000 0.000 Not Reported Not Reported
07/12/2018 10:05 AM 72.68 56.30 42.98 91.58 55.22 33.0 Not Reported 2.01 NW 1.12 NW 4.25 NW No 0.000 No Precipitation 06/18/2018 03:55 AM 06/18/2018 04:00 AM 0.000 0.000 0.000 0.000 0.000 Not Reported Not Reported
07/12/2018 10:10 AM 72.50 55.58 40.64 91.58 55.22 32.0 Not Reported 3.13 N 2.91 NW 5.14 NE No 0.000 No Precipitation 06/18/2018 03:55 AM 06/18/2018 04:00 AM 0.000 0.000 0.000 0.000 0.000 Not Reported Not Reported
07/12/2018 10:15 AM 73.94 56.66 42.08 91.58 55.22 31.0 Not Reported 0.45 NW 0.45 NW 5.14 NE No 0.000 No Precipitation 06/18/2018 03:55 AM 06/18/2018 04:00 AM 0.000 0.000 0.000 0.000 0.000 Not Reported Not Reported
07/12/2018 10:20 AM 74.48 56.66 41.54 91.58 55.22 30.0 Not Reported 0.00 W 0.00 W 4.92 N No 0.000 No Precipitation 06/18/2018 03:55 AM 06/18/2018 04:00 AM 0.000 0.000 0.000 0.000 0.000 Not Reported Not Reported
07/12/2018 10:25 AM 74.30 56.48 41.36 91.58 55.22 31.0 Not Reported 3.36 NE 2.46 N 4.92 N No 0.000 No Precipitation 06/18/2018 03:55 AM 06/18/2018 04:00 AM 0.000 0.000 0.000 0.000 0.000 Not Reported Not Reported
07/12/2018 10:30 AM 74.12 56.48 41.36 91.58 55.22 30.0 Not Reported 1.12 NW 0.00 NW 4.47 NE No 0.000 No Precipitation 06/18/2018 03:55 AM 06/18/2018 04:00 AM 0.000 0.000 0.000 0.000 0.000 Not Reported Not Reported
07/12/2018 10:35 AM 75.74 56.84 40.82 91.58 55.22 28.0 Not Reported 1.34 S 2.01 NE 4.47 NE No 0.000 No Precipitation 06/18/2018 03:55 AM 06/18/2018 04:00 AM 0.000 0.000 0.000 0.000 0.000 Not Reported Not Reported
07/12/2018 10:40 AM 75.56 57.02 41.36 91.58 55.22 29.0 Not Reported 2.46 N 2.01 NE 5.14 NE No 0.000 No Precipitation 06/18/2018 03:55 AM 06/18/2018 04:00 AM 0.000 0.000 0.000 0.000 0.000 Not Reported Not Reported
07/12/2018 10:45 AM 75.20 56.84 41.18 91.58 55.22 29.0 Not Reported 0.89 W 2.01 NW 5.14 NE No 0.000 No Precipitation 06/18/2018 03:55 AM 06/18/2018 04:00 AM 0.000 0.000 0.000 0.000 0.000 Not Reported Not Reported
07/12/2018 10:50 AM 76.64 57.38 41.36 91.58 55.22 28.0 Not Reported 0.89 N 3.13 NW 3.80 N No 0.000 No Precipitation 06/18/2018 03:55 AM 06/18/2018 04:00 AM 0.000 0.000 0.000 0.000 0.000 Not Reported Not Reported
07/12/2018 10:55 AM 76.46 57.56 41.90 91.58 55.22 28.0 Not Reported 2.24 N 2.24 NE 3.80 N No 0.000 No Precipitation 06/18/2018 03:55 AM 06/18/2018 04:00 AM 0.000 0.000 0.000 0.000 0.000 Not Reported Not Reported
07/12/2018 11:00 AM 76.28 56.84 40.28 91.58 55.22 27.0 Not Reported 4.70 NE 3.58 N 4.70 N No 0.000 No Precipitation 06/18/2018 03:55 AM 06/18/2018 04:00 AM 0.000 0.000 0.000 0.000 0.000 Not Reported Not Reported
07/12/2018 11:05 AM 76.82 57.02 40.46 91.58 55.22 27.0 Not Reported 2.46 E 1.57 NE 4.70 N No 0.000 No Precipitation 06/18/2018 03:55 AM 06/18/2018 04:00 AM 0.000 0.000 0.000 0.000 0.000 Not Reported Not Reported
07/12/2018 11:10 AM 77.72 57.56 40.64 91.58 55.22 26.0 Not Reported 3.36 E 4.03 NE 5.14 NE No 0.000 No Precipitation 06/18/2018 03:55 AM 06/18/2018 04:00 AM 0.000 0.000 0.000 0.000 0.000 Not Reported Not Reported
07/12/2018 11:15 AM 77.72 57.38 40.28 91.58 55.22 27.0 Not Reported 1.79 SE 3.80 N 5.14 NE No 0.000 No Precipitation 06/18/2018 03:55 AM 06/18/2018 04:00 AM 0.000 0.000 0.000 0.000 0.000 Not Reported Not Reported
07/12/2018 11:20 AM 77.00 57.38 40.28 91.58 55.22 27.0 Not Reported 3.58 NE 3.80 N 4.92 NE No 0.000 No Precipitation 06/18/2018 03:55 AM 06/18/2018 04:00 AM 0.000 0.000 0.000 0.000 0.000 Not Reported Not Reported
07/12/2018 11:25 AM 78.62 57.92 40.64 91.58 55.22 25.0 Not Reported 2.46 N 1.34 N 4.92 NE No 0.000 No Precipitation 06/18/2018 03:55 AM 06/18/2018 04:00 AM 0.000 0.000 0.000 0.000 0.000 Not Reported Not Reported
07/12/2018 11:30 AM 78.62 57.74 40.10 91.58 55.22 25.0 Not Reported 2.46 N 2.46 E 5.37 N No 0.000 No Precipitation 06/18/2018 03:55 AM 06/18/2018 04:00 AM 0.000 0.000 0.000 0.000 0.000 Not Reported Not Reported
07/12/2018 11:35 AM 78.80 57.92 40.28 91.58 55.22 24.0 Not Reported 2.24 SW 0.22 N 5.37 N No 0.000 No Precipitation 06/18/2018 03:55 AM 06/18/2018 04:00 AM 0.000 0.000 0.000 0.000 0.000 Not Reported Not Reported
07/12/2018 11:40 AM 78.98 58.10 40.64 91.58 55.22 25.0 Not Reported 4.47 NE 5.14 NE 5.14 NE No 0.000 No Precipitation 06/18/2018 03:55 AM 06/18/2018 04:00 AM 0.000 0.000 0.000 0.000 0.000 Not Reported Not Reported
07/12/2018 11:45 AM 78.80 57.92 40.46 91.58 55.22 25.0 Not Reported 2.46 N 1.79 W 5.14 NE No 0.000 No Precipitation 06/18/2018 03:55 AM 06/18/2018 04:00 AM 0.000 0.000 0.000 0.000 0.000 Not Reported Not Reported
07/12/2018 11:50 AM 79.52 58.28 40.82 91.58 55.22 24.0 Not Reported 0.89 SW 2.24 NW 5.82 NE No 0.000 No Precipitation 06/18/2018 03:55 AM 06/18/2018 04:00 AM 0.000 0.000 0.000 0.000 0.000 Not Reported Not Reported
07/12/2018 11:55 AM 80.96 58.82 40.28 91.58 55.22 23.0 Not Reported 0.89 W 2.01 NE 5.82 NE No 0.000 No Precipitation 06/18/2018 03:55 AM 06/18/2018 04:00 AM 0.000 0.000 0.000 0.000 0.000 Not Reported Not Reported
07/12/2018 12:00 PM 81.32 59.00 40.46 91.58 55.22 23.0 Not Reported 2.01 NE 4.92 N 4.03 N No 0.000 No Precipitation 06/18/2018 03:55 AM 06/18/2018 04:00 AM 0.000 0.000 0.000 0.000 0.000 Not Reported Not Reported
07/12/2018 12:05 PM 80.60 58.46 40.10 91.58 55.22 24.0 Not Reported 3.13 N 5.59 NE 4.03 N No 0.000 No Precipitation 06/18/2018 03:55 AM 06/18/2018 04:00 AM 0.000 0.000 0.000 0.000 0.000 Not Reported Not Reported
07/12/2018 12:10 PM 81.68 58.82 40.10 91.58 55.22 22.0 Not Reported 3.58 N 3.80 NE 6.26 NE No 0.000 No Precipitation 06/18/2018 03:55 AM 06/18/2018 04:00 AM 0.000 0.000 0.000 0.000 0.000 Not Reported Not Reported
07/12/2018 12:15 PM 81.68 58.82 39.92 91.58 55.22 23.0 Not Reported 2.46 NE 0.67 N 6.26 NE No 0.000 No Precipitation 06/18/2018 03:55 AM 06/18/2018 04:00 AM 0.000 0.000 0.000 0.000 0.000 Not Reported Not Reported
07/12/2018 12:20 PM 82.22 59.00 39.92 91.58 55.22 22.0 Not Reported 0.89 SW 1.34 NE 5.82 N No 0.000 No Precipitation 06/18/2018 03:55 AM 06/18/2018 04:00 AM 0.000 0.000 0.000 0.000 0.000 Not Reported Not Reported
07/12/2018 12:25 PM 82.94 59.54 40.28 91.58 55.22 21.0 Not Reported 2.68 NW 1.57 N 5.82 N No 0.000 No Precipitation 06/18/2018 03:55 AM 06/18/2018 04:00 AM 0.000 0.000 0.000 0.000 0.000 Not Reported Not Reported
07/12/2018 12:30 PM 82.94 59.90 41.72 91.58 55.22 23.0 Not Reported 2.24 NW 3.80 SW 4.92 NW No 0.000 No Precipitation 06/18/2018 03:55 AM 06/18/2018 04:00 AM 0.000 0.000 0.000 0.000 0.000 Not Reported Not Reported
07/12/2018 12:35 PM 84.20 60.62 42.26 91.58 55.22 20.0 Not Reported 4.47 W 0.45 SW 4.92 NW No 0.000 No Precipitation 06/18/2018 03:55 AM 06/18/2018 04:00 AM 0.000 0.000 0.000 0.000 0.000 Not Reported Not Reported
07/12/2018 12:40 PM 84.92 60.08 39.74 91.58 55.22 19.0 Not Reported 3.13 E 3.36 NE 5.14 W No 0.000 No Precipitation 06/18/2018 03:55 AM 06/18/2018 04:00 AM 0.000 0.000 0.000 0.000 0.000 Not Reported Not Reported
07/12/2018 12:45 PM 84.74 59.72 39.20 91.58 55.22 20.0 Not Reported 1.57 N 2.24 NW 5.14 W No 0.000 No Precipitation 06/18/2018 03:55 AM 06/18/2018 04:00 AM 0.000 0.000 0.000 0.000 0.000 Not Reported Not Reported
07/12/2018 12:50 PM 85.10 59.90 39.02 91.58 55.22 20.0 Not Reported 2.01 NW 3.36 NW 4.92 NE No 0.000 No Precipitation 06/18/2018 03:55 AM 06/18/2018 04:00 AM 0.000 0.000 0.000 0.000 0.000 Not Reported Not Reported
07/12/2018 12:55 PM 84.92 59.90 39.38 91.58 55.22 19.0 Not Reported 1.79 NE 1.12 NE 4.92 NE No 0.000 No Precipitation 06/18/2018 03:55 AM 06/18/2018 04:00 AM 0.000 0.000 0.000 0.000 0.000 Not Reported Not Reported
07/12/2018 01:00 PM 84.92 59.90 39.02 91.58 55.22 19.0 Not Reported 5.37 N 5.37 NE 3.80 E No 0.000 No Precipitation 06/18/2018 03:55 AM 06/18/2018 04:00 AM 0.000 0.000 0.000 0.000 0.000 Not Reported Not Reported
07/12/2018 01:05 PM 86.18 60.44 39.56 91.58 55.22 19.0 Not Reported 4.47 NE 4.25 NE 3.80 E No 0.000 No Precipitation 06/18/2018 03:55 AM 06/18/2018 04:00 AM 0.000 0.000 0.000 0.000 0.000 Not Reported Not Reported
07/12/2018 01:10 PM 85.82 60.08 38.84 91.58 55.22 19.0 Not Reported 3.13 NE 1.57 SE 6.71 NE No 0.000 No Precipitation 06/18/2018 03:55 AM 06/18/2018 04:00 AM 0.000 0.000 0.000 0.000 0.000 Not Reported Not Reported
07/12/2018 01:15 PM 85.82 60.08 39.20 91.58 55.22 18.0 Not Reported 1.12 N 2.91 E 6.71 NE No 0.000 No Precipitation 06/18/2018 03:55 AM 06/18/2018 04:00 AM 0.000 0.000 0.000 0.000 0.000 Not Reported Not Reported
07/12/2018 01:20 PM 85.46 59.72 38.12 91.58 55.22 18.0 Not Reported 2.68 N 3.58 NE 3.80 E No 0.000 No Precipitation 06/18/2018 03:55 AM 06/18/2018 04:00 AM 0.000 0.000 0.000 0.000 0.000 Not Reported Not Reported
07/12/2018 01:25 PM 85.64 59.72 37.58 91.58 55.22 18.0 Not Reported 2.24 S 2.68 S 3.80 E No 0.000 No Precipitation 06/18/2018 03:55 AM 06/18/2018 04:00 AM 0.000 0.000 0.000 0.000 0.000 Not Reported Not Reported
07/12/2018 01:30 PM 88.52 61.34 39.56 91.58 55.22 18.0 Not Reported 3.58 SW 5.59 W 5.37 SE No 0.000 No Precipitation 06/18/2018 03:55 AM 06/18/2018 04:00 AM 0.000 0.000 0.000 0.000 0.000 Not Reported Not Reported
07/12/2018 01:35 PM 87.08 60.44 38.48 91.58 55.22 17.0 Not Reported 2.24 W 2.24 W 5.37 SE No 0.000 No Precipitation 06/18/2018 03:55 AM 06/18/2018 04:00 AM 0.000 0.000 0.000 0.000 0.000 Not Reported Not Reported
07/12/2018 01:40 PM 89.24 61.16 38.12 91.58 55.22 16.0 Not Reported 1.34 W 0.89 S 6.93 W No 0.000 No Precipitation 06/18/2018 03:55 AM 06/18/2018 04:00 AM 0.000 0.000 0.000 0.000 0.000 Not Reported Not Reported
07/12/2018 01:45 PM 89.60 61.52 39.20 91.58 55.22 17.0 Not Reported 0.89 W 2.24 E 6.93 W No 0.000 No Precipitation 06/18/2018 03:55 AM 06/18/2018 04:00 AM 0.000 0.000 0.000 0.000 0.000 Not Reported Not Reported
07/12/2018 01:50 PM 89.60 61.52 38.84 91.58 55.22 16.0 Not Reported 2.46 SE 2.46 SE 6.49 SE No 0.000 No Precipitation 06/18/2018 03:55 AM 06/18/2018 04:00 AM 0.000 0.000 0.000 0.000 0.000 Not Reported Not Reported
07/12/2018 01:55 PM 89.60 62.06 40.46 91.58 55.22 17.0 Not Reported 2.68 S 4.25 S 6.49 SE No 0.000 No Precipitation 06/18/2018 03:55 AM 06/18/2018 04:00 AM 0.000 0.000 0.000 0.000 0.000 Not Reported Not Reported
07/12/2018 02:00 PM 88.88 60.98 37.94 91.58 55.22 16.0 Not Reported 3.80 S 0.00 N 6.49 SW No 0.000 No Precipitation 06/18/2018 03:55 AM 06/18/2018 04:00 AM 0.000 0.000 0.000 0.000 0.000 Not Reported Not Reported
07/12/2018 02:05 PM 90.86 62.60 41.36 91.58 55.22 15.0 Not Reported 2.24 SW 0.22 S 6.49 SW No 0.000 No Precipitation 06/18/2018 03:55 AM 06/18/2018 04:00 AM 0.000 0.000 0.000 0.000 0.000 Not Reported Not Reported
07/12/2018 02:10 PM 91.94 63.14 41.54 91.58 55.22 15.0 Not Reported 3.58 SW 8.28 SW 6.04 SW No 0.000 No Precipitation 06/18/2018 03:55 AM 06/18/2018 04:00 AM 0.000 0.000 0.000 0.000 0.000 Not Reported Not Reported
07/12/2018 02:15 PM 89.96 61.52 38.84 91.58 55.22 16.0 Not Reported 6.49 SW 4.92 W 6.04 SW No 0.000 No Precipitation 06/18/2018 03:55 AM 06/18/2018 04:00 AM 0.000 0.000 0.000 0.000 0.000 Not Reported Not Reported
07/12/2018 02:20 PM 90.32 62.42 41.00 91.58 55.22 16.0 Not Reported 4.92 W 2.91 W 8.72 SW No 0.000 No Precipitation 06/18/2018 03:55 AM 06/18/2018 04:00 AM 0.000 0.000 0.000 0.000 0.000 Not Reported Not Reported
07/12/2018 02:25 PM 90.14 61.52 38.30 91.58 55.22 16.0 Not Reported 2.91 SW 3.13 W 8.72 SW No 0.000 No Precipitation 06/18/2018 03:55 AM 06/18/2018 04:00 AM 0.000 0.000 0.000 0.000 0.000 Not Reported Not Reported
07/12/2018 02:30 PM 89.24 60.98 37.40 91.58 55.22 16.0 Not Reported 3.36 SW 3.13 N 7.16 S No 0.000 No Precipitation 06/18/2018 03:55 AM 06/18/2018 04:00 AM 0.000 0.000 0.000 0.000 0.000 Not Reported Not Reported
07/12/2018 02:35 PM 92.30 62.06 37.58 91.58 55.22 15.0 Not Reported 1.79 S 3.13 E 7.16 S No 0.000 No Precipitation 06/18/2018 03:55 AM 06/18/2018 04:00 AM 0.000 0.000 0.000 0.000 0.000 Not Reported Not Reported
07/12/2018 02:40 PM 90.14 60.98 36.32 91.58 55.22 15.0 Not Reported 3.13 SE 4.47 E 7.16 SW No 0.000 No Precipitation 06/18/2018 03:55 AM 06/18/2018 04:00 AM 0.000 0.000 0.000 0.000 0.000 Not Reported Not Reported
07/12/2018 02:45 PM 89.60 60.44 35.06 91.58 55.22 14.0 Not Reported 3.13 SE 0.22 NW 7.16 SW No 0.000 No Precipitation 06/18/2018 03:55 AM 06/18/2018 04:00 AM 0.000 0.000 0.000 0.000 0.000 Not Reported Not Reported
07/12/2018 02:50 PM 91.40 61.70 37.40 91.58 55.22 14.0 Not Reported 3.36 W 4.25 W 4.47 E No 0.000 No Precipitation 06/18/2018 03:55 AM 06/18/2018 04:00 AM 0.000 0.000 0.000 0.000 0.000 Not Reported Not Reported
07/12/2018 02:55 PM 92.48 61.88 36.68 91.58 55.22 13.0 Not Reported 4.47 S 5.14 S 4.47 E No 0.000 No Precipitation 06/18/2018 03:55 AM 06/18/2018 04:00 AM 0.000 0.000 0.000 0.000 0.000 Not Reported Not Reported
07/12/2018 03:00 PM 90.68 60.98 35.60 91.58 55.22 13.0 Not Reported 3.58 NE 1.34 N 6.04 S No 0.000 No Precipitation 06/18/2018 03:55 AM 06/18/2018 04:00 AM 0.000 0.000 0.000 0.000 0.000 Not Reported Not Reported
07/12/2018 03:05 PM 92.12 62.06 37.76 91.58 55.22 15.0 Not Reported 4.47 SW 3.13 W 6.04 S No 0.000 No Precipitation 06/18/2018 03:55 AM 06/18/2018 04:00 AM 0.000 0.000 0.000 0.000 0.000 Not Reported Not Reported
07/12/2018 03:10 PM 91.04 60.98 35.78 91.58 55.22 15.0 Not Reported 3.80 N 2.24 W 5.59 S No 0.000 No Precipitation 06/18/2018 03:55 AM 06/18/2018 04:00 AM 0.000 0.000 0.000 0.000 0.000 Not Reported Not Reported
07/12/2018 03:15 PM 92.48 61.70 35.78 91.58 55.22 13.0 Not Reported 5.82 SW 9.62 W 5.59 S No 0.000 No Precipitation 06/18/2018 03:55 AM 06/18/2018 04:00 AM 0.000 0.000 0.000 0.000 0.000 Not Reported Not Reported
07/12/2018 03:20 PM 92.66 61.52 35.24 91.58 55.22 13.0 Not Reported 6.26 SW 6.26 SW 10.51 SW No 0.000 No Precipitation 06/18/2018 03:55 AM 06/18/2018 04:00 AM 0.000 0.000 0.000 0.000 0.000 Not Reported Not Reported
07/12/2018 03:25 PM 91.94 60.98 34.16 91.58 55.22 13.0 Not Reported 4.03 W 10.96 W 10.51 SW No 0.000 No Precipitation 06/18/2018 03:55 AM 06/18/2018 04:00 AM 0.000 0.000 0.000 0.000 0.000 Not Reported Not Reported
07/12/2018 03:30 PM 91.76 61.16 35.24 91.58 55.22 12.0 Not Reported 5.14 NW 3.36 W 12.97 W No 0.000 No Precipitation 06/18/2018 03:55 AM 06/18/2018 04:00 AM 0.000 0.000 0.000 0.000 0.000 Not Reported Not Reported
07/12/2018 03:35 PM 90.50 60.08 32.72 91.58 55.22 12.0 Not Reported 2.91 NW 3.36 E 12.97 W No 0.000 No Precipitation 06/18/2018 03:55 AM 06/18/2018 04:00 AM 0.000 0.000 0.000 0.000 0.000 Not Reported Not Reported
07/12/2018 03:40 PM 92.12 60.62 31.82 91.58 55.22 11.0 Not Reported 4.25 E 2.46 E 7.83 NW No 0.000 No Precipitation 06/18/2018 03:55 AM 06/18/2018 04:00 AM 0.000 0.000 0.000 0.000 0.000 Not Reported Not Reported
07/12/2018 03:45 PM 93.74 61.16 32.36 91.58 55.22 11.0 Not Reported 2.24 NE 0.89 SW 7.83 NW No 0.000 No Precipitation 06/18/2018 03:55 AM 06/18/2018 04:00 AM 0.000 0.000 0.000 0.000 0.000 Not Reported Not Reported
07/12/2018 03:50 PM 94.64 62.06 34.16 91.58 55.22 11.0 Not Reported 4.25 SW 6.49 SW 5.14 E No 0.000 No Precipitation 06/18/2018 03:55 AM 06/18/2018 04:00 AM 0.000 0.000 0.000 0.000 0.000 Not Reported Not Reported
07/12/2018 03:55 PM 93.38 61.88 35.24 91.58 55.22 12.0 Not Reported 4.25 S 3.80 S 5.14 E No 0.000 No Precipitation 06/18/2018 03:55 AM 06/18/2018 04:00 AM 0.000 0.000 0.000 0.000 0.000 Not Reported Not Reported
07/12/2018 04:00 PM 94.28 61.34 31.64 91.58 55.22 9.0 Not Reported 0.67 SW 8.05 W 6.49 SW No 0.000 No Precipitation 06/18/2018 03:55 AM 06/18/2018 04:00 AM 0.000 0.000 0.000 0.000 0.000 Not Reported Not Reported
07/12/2018 04:05 PM 93.02 60.44 30.74 91.58 55.22 10.0 Not Reported 6.26 W 3.36 W 6.49 SW No 0.000 No Precipitation 06/18/2018 03:55 AM 06/18/2018 04:00 AM 0.000 0.000 0.000 0.000 0.000 Not Reported Not Reported
07/12/2018 04:10 PM 92.66 59.90 28.22 91.58 55.22 9.0 Not Reported 1.34 W 2.68 N 8.72 W No 0.000 No Precipitation 06/18/2018 03:55 AM 06/18/2018 04:00 AM 0.000 0.000 0.000 0.000 0.000 Not Reported Not Reported
07/12/2018 04:15 PM 94.10 60.62 29.12 91.58 55.22 10.0 Not Reported 2.68 N 4.03 SW 8.72 W No 0.000 No Precipitation 06/18/2018 03:55 AM 06/18/2018 04:00 AM 0.000 0.000 0.000 0.000 0.000 Not Reported Not Reported
07/12/2018 04:20 PM 92.48 59.54 26.96 91.58 55.22 9.0 Not Reported 2.24 S 3.13 W 6.93 S No 0.000 No Precipitation 06/18/2018 03:55 AM 06/18/2018 04:00 AM 0.000 0.000 0.000 0.000 0.000 Not Reported Not Reported
07/12/2018 04:25 PM 93.92 60.62 29.48 91.58 55.22 11.0 Not Reported 6.04 W 5.14 S 6.93 S No 0.000 No Precipitation 06/18/2018 03:55 AM 06/18/2018 04:00 AM 0.000 0.000 0.000 0.000 0.000 Not Reported Not Reported
07/12/2018 04:30 PM 92.48 59.72 27.86 91.58 55.22 10.0 Not Reported 2.24 NW 2.24 W 8.95 SW No 0.000 No Precipitation 06/18/2018 03:55 AM 06/18/2018 04:00 AM 0.000 0.000 0.000 0.000 0.000 Not Reported Not Reported
07/12/2018 04:35 PM 93.38 60.62 30.74 91.58 55.22 11.0 Not Reported 3.58 W 10.96 SW 8.95 SW No 0.000 No Precipitation 06/18/2018 03:55 AM 06/18/2018 04:00 AM 0.000 0.000 0.000 0.000 0.000 Not Reported Not Reported
07/12/2018 04:40 PM 93.56 60.98 31.64 91.58 55.22 11.0 Not Reported 8.95 SW 5.37 SW 10.96 SW No 0.000 No Precipitation 06/18/2018 03:55 AM 06/18/2018 04:00 AM 0.000 0.000 0.000 0.000 0.000 Not Reported Not Reported
07/12/2018 04:45 PM 93.56 60.80 30.74 91.58 55.22 10.0 Not Reported 4.47 NW 0.89 W 10.96 SW No 0.000 No Precipitation 06/18/2018 03:55 AM 06/18/2018 04:00 AM 0.000 0.000 0.000 0.000 0.000 Not Reported Not Reported
07/12/2018 04:50 PM 93.20 61.34 33.62 91.58 55.22 12.0 Not Reported 6.93 SW 8.05 SW 10.96 SW No 0.000 No Precipitation 06/18/2018 03:55 AM 06/18/2018 04:00 AM 0.000 0.000 0.000 0.000 0.000 Not Reported Not Reported
07/12/2018 04:55 PM 94.46 62.42 36.32 91.58 55.22 11.0 Not Reported 8.28 SW 5.37 S 10.96 SW No 0.000 No Precipitation 06/18/2018 03:55 AM 06/18/2018 04:00 AM 0.000 0.000 0.000 0.000 0.000 Not Reported Not Reported
07/12/2018 05:00 PM 94.10 61.34 32.36 91.58 55.22 10.0 Not Reported 2.91 SE 4.47 SE 9.84 SW No 0.000 No Precipitation 06/18/2018 03:55 AM 06/18/2018 04:00 AM 0.000 0.000 0.000 0.000 0.000 Not Reported Not Reported
07/12/2018 05:05 PM 92.66 60.62 31.82 91.58 55.22 11.0 Not Reported 5.59 E 3.80 SE 9.84 SW No 0.000 No Precipitation 06/18/2018 03:55 AM 06/18/2018 04:00 AM 0.000 0.000 0.000 0.000 0.000 Not Reported Not Reported
07/12/2018 05:10 PM 94.10 61.16 32.00 91.58 55.22 11.0 Not Reported 4.70 SE 6.26 S 8.05 E No 0.000 No Precipitation 06/18/2018 03:55 AM 06/18/2018 04:00 AM 0.000 0.000 0.000 0.000 0.000 Not Reported Not Reported
07/12/2018 05:15 PM 93.02 60.62 31.10 91.58 55.22 11.0 Not Reported 2.46 E 1.34 E 8.05 E No 0.000 No Precipitation 06/18/2018 03:55 AM 06/18/2018 04:00 AM 0.000 0.000 0.000 0.000 0.000 Not Reported Not Reported
07/12/2018 05:20 PM 93.74 61.70 34.16 91.58 55.22 12.0 Not Reported 3.36 W 4.70 W 6.26 S No 0.000 No Precipitation 06/18/2018 03:55 AM 06/18/2018 04:00 AM 0.000 0.000 0.000 0.000 0.000 Not Reported Not Reported
07/12/2018 05:25 PM 93.92 61.88 34.88 91.58 55.22 13.0 Not Reported 4.70 W 8.50 W 6.26 S No 0.000 No Precipitation 06/18/2018 03:55 AM 06/18/2018 04:00 AM 0.000 0.000 0.000 0.000 0.000 Not Reported Not Reported
07/12/2018 05:30 PM 95.00 62.78 36.86 91.58 55.22 12.0 Not Reported 6.26 SW 4.25 W 10.74 SW No 0.000 No Precipitation 06/18/2018 03:55 AM 06/18/2018 04:00 AM 0.000 0.000 0.000 0.000 0.000 Not Reported Not Reported
07/12/2018 05:35 PM 93.74 62.78 38.30 91.58 55.22 14.0 Not Reported 8.72 W 9.17 W 10.74 SW No 0.000 No Precipitation 06/18/2018 03:55 AM 06/18/2018 04:00 AM 0.000 0.000 0.000 0.000 0.000 Not Reported Not Reported
07/12/2018 05:40 PM 94.28 62.96 37.76 91.58 55.22 14.0 Not Reported 8.28 W 8.95 W 12.53 W No 0.000 No Precipitation 06/18/2018 03:55 AM 06/18/2018 04:00 AM 0.000 0.000 0.000 0.000 0.000 Not Reported Not Reported
07/12/2018 05:45 PM 93.38 61.70 34.88 91.58 55.22 13.0 Not Reported 9.62 SW 4.70 W 12.53 W No 0.000 No Precipitation 06/18/2018 03:55 AM 06/18/2018 04:00 AM 0.000 0.000 0.000 0.000 0.000 Not Reported Not Reported
07/12/2018 05:50 PM 93.56 62.06 35.78 91.58 55.22 12.0 Not Reported 3.58 NW 2.01 N 10.74 W No 0.000 No Precipitation 06/18/2018 03:55 AM 06/18/2018 04:00 AM 0.000 0.000 0.000 0.000 0.000 Not Reported Not Reported
07/12/2018 05:55 PM 93.56 62.24 36.50 91.58 55.22 14.0 Not Reported 3.80 N 3.36 N 10.74 W No 0.000 No Precipitation 06/18/2018 03:55 AM 06/18/2018 04:00 AM 0.000 0.000 0.000 0.000 0.000 Not Reported Not Reported
07/12/2018 06:00 PM 93.38 62.06 36.14 95.18 48.02 13.0 Not Reported 7.16 N 6.71 NE 5.82 NE No 0.000 No Precipitation 06/18/2018 03:55 AM 06/18/2018 04:00 AM 0.000 0.000 0.000 0.000 0.000 Not Reported Not Reported
07/12/2018 06:05 PM 93.38 62.24 36.32 95.18 48.02 13.0 Not Reported 3.36 N 4.70 W 5.82 NE No 0.000 No Precipitation 06/18/2018 03:55 AM 06/18/2018 04:00 AM 0.000 0.000 0.000 0.000 0.000 Not Reported Not Reported
07/12/2018 06:10 PM 92.66 61.70 35.42 95.18 48.02 13.0 Not Reported 3.36 NW 4.03 SW 9.62 N No 0.000 No Precipitation 06/18/2018 03:55 AM 06/18/2018 04:00 AM 0.000 0.000 0.000 0.000 0.000 Not Reported Not Reported
07/12/2018 06:15 PM 93.20 61.34 33.62 95.18 48.02 12.0 Not Reported 3.13 NE 4.92 E 9.62 N No 0.000 No Precipitation 06/18/2018 03:55 AM 06/18/2018 04:00 AM 0.000 0.000 0.000 0.000 0.000 Not Reported Not Reported
07/12/2018 06:20 PM 93.56 62.42 37.40 95.18 48.02 14.0 Not Reported 2.46 NW 9.17 W 6.04 NE No 0.000 No Precipitation 06/18/2018 03:55 AM 06/18/2018 04:00 AM 0.000 0.000 0.000 0.000 0.000 Not Reported Not Reported
07/12/2018 06:25 PM 93.38 62.06 36.32 95.18 48.02 14.0 Not Reported 5.82 W 4.47 NW 6.04 NE No 0.000 No Precipitation 06/18/2018 03:55 AM 06/18/2018 04:00 AM 0.000 0.000 0.000 0.000 0.000 Not Reported Not Reported
07/12/2018 06:30 PM 91.94 61.70 36.50 95.18 48.02 14.0 Not Reported 5.37 NW 4.70 N 9.17 W No 0.000 No Precipitation 06/18/2018 03:55 AM 06/18/2018 04:00 AM 0.000 0.000 0.000 0.000 0.000 Not Reported Not Reported
07/12/2018 06:35 PM 93.74 62.78 38.48 95.18 48.02 15.0 Not Reported 4.47 NW 2.24 W 9.17 W No 0.000 No Precipitation 06/18/2018 03:55 AM 06/18/2018 04:00 AM 0.000 0.000 0.000 0.000 0.000 Not Reported Not Reported
07/12/2018 06:40 PM 93.56 62.96 38.84 95.18 48.02 15.0 Not Reported 2.46 N 3.80 W 8.05 NW No 0.000 No Precipitation 06/18/2018 03:55 AM 06/18/2018 04:00 AM 0.000 0.000 0.000 0.000 0.000 Not Reported Not Reported
07/12/2018 06:45 PM 93.38 62.42 37.40 95.18 48.02 14.0 Not Reported 5.14 NW 2.46 N 8.05 NW No 0.000 No Precipitation 06/18/2018 03:55 AM 06/18/2018 04:00 AM 0.000 0.000 0.000 0.000 0.000 Not Reported Not Reported
07/12/2018 06:50 PM 93.02 62.78 39.02 95.18 48.02 14.0 Not Reported 10.74 NW 2.01 N 7.61 W No 0.000 No Precipitation 06/18/2018 03:55 AM 06/18/2018 04:00 AM 0.000 0.000 0.000 0.000 0.000 Not Reported Not Reported
07/12/2018 06:55 PM 92.48 62.06 37.58 95.18 48.02 14.0 Not Reported 6.04 N 2.91 N 7.61 W No 0.000 No Precipitation 06/18/2018 03:55 AM 06/18/2018 04:00 AM 0.000 0.000 0.000 0.000 0.000 Not Reported Not Reported
07/12/2018 07:00 PM 92.12 61.70 36.68 95.18 48.02 14.0 Not Reported 6.49 N 4.70 NW 12.75 W No 0.000 No Precipitation 06/18/2018 03:55 AM 06/18/2018 04:00 AM 0.000 0.000 0.000 0.000 0.000 Not Reported Not Reported
07/12/2018 07:05 PM 91.76 61.70 36.50 95.18 48.02 14.0 Not Reported 5.82 N 3.80 N 12.75 W No 0.000 No Precipitation 06/18/2018 03:55 AM 06/18/2018 04:00 AM 0.000 0.000 0.000 0.000 0.000 Not Reported Not Reported
07/12/2018 07:10 PM 92.12 62.24 38.30 95.18 48.02 15.0 Not Reported 5.37 NW 2.91 NW 9.17 NE No 0.000 No Precipitation 06/18/2018 03:55 AM 06/18/2018 04:00 AM 0.000 0.000 0.000 0.000 0.000 Not Reported Not Reported
07/12/2018 07:15 PM 91.58 61.34 36.32 95.18 48.02 14.0 Not Reported 9.40 N 8.28 NE 9.17 NE No 0.000 No Precipitation 06/18/2018 03:55 AM 06/18/2018 04:00 AM 0.000 0.000 0.000 0.000 0.000 Not Reported Not Reported
07/12/2018 07:20 PM 91.94 62.06 38.12 95.18 48.02 15.0 Not Reported 5.59 N 3.58 NW 12.30 N No 0.000 No Precipitation 06/18/2018 03:55 AM 06/18/2018 04:00 AM 0.000 0.000 0.000 0.000 0.000 Not Reported Not Reported
07/12/2018 07:25 PM 91.58 61.52 36.14 95.18 48.02 14.0 Not Reported 4.25 NW 3.58 NW 12.30 N No 0.000 No Precipitation 06/18/2018 03:55 AM 06/18/2018 04:00 AM 0.000 0.000 0.000 0.000 0.000 Not Reported Not Reported
07/12/2018 07:30 PM 91.76 61.70 36.68 95.18 48.02 14.0 Not Reported 3.36 NW 3.80 N 6.26 N No 0.000 No Precipitation 06/18/2018 03:55 AM 06/18/2018 04:00 AM 0.000 0.000 0.000 0.000 0.000 Not Reported Not Reported
07/12/2018 07:35 PM 91.58 61.52 36.32 95.18 48.02 14.0 Not Reported 4.47 N 2.46 W 6.26 N No 0.000 No Precipitation 06/18/2018 03:55 AM 06/18/2018 04:00 AM 0.000 0.000 0.000 0.000 0.000 Not Reported Not Reported
07/12/2018 07:40 PM 91.40 61.52 36.50 95.18 48.02 15.0 Not Reported 3.80 N 5.14 W 6.93 N No 0.000 No Precipitation 06/18/2018 03:55 AM 06/18/2018 04:00 AM 0.000 0.000 0.000 0.000 0.000 Not Reported Not Reported
07/12/2018 07:45 PM 91.22 61.34 36.14 95.18 48.02 14.0 Not Reported 1.79 NW 2.68 NW 6.93 N No 0.000 No Precipitation 06/18/2018 03:55 AM 06/18/2018 04:00 AM 0.000 0.000 0.000 0.000 0.000 Not Reported Not Reported
07/12/2018 07:50 PM 91.58 62.06 38.66 95.18 48.02 14.0 Not Reported 3.58 NW 5.59 N 6.04 N No 0.000 No Precipitation 06/18/2018 03:55 AM 06/18/2018 04:00 AM 0.000 0.000 0.000 0.000 0.000 Not Reported Not Reported
07/12/2018 07:55 PM 90.86 61.16 36.50 95.18 48.02 14.0 Not Reported 2.68 N 3.80 NW 6.04 N No 0.000 No Precipitation 06/18/2018 03:55 AM 06/18/2018 04:00 AM 0.000 0.000 0.000 0.000 0.000 Not Reported Not Reported
07/12/2018 08:00 PM 91.22 61.16 35.60 95.18 48.02 14.0 Not Reported 2.24 NW 3.13 NW 5.59 N No 0.000 No Precipitation 06/18/2018 03:55 AM 06/18/2018 04:00 AM 0.000 0.000 0.000 0.000 0.000 Not Reported Not Reported
07/12/2018 08:05 PM 90.86 61.34 36.32 95.18 48.02 15.0 Not Reported 3.58 N 2.91 W 5.59 N No 0.000 No Precipitation 06/18/2018 03:55 AM 06/18/2018 04:00 AM 0.000 0.000 0.000 0.000 0.000 Not Reported Not Reported
07/12/2018 08:10 PM 90.86 61.88 39.02 95.18 48.02 15.0 Not Reported 3.58 NW 2.01 W 4.92 NW No 0.000 No Precipitation 06/18/2018 03:55 AM 06/18/2018 04:00 AM 0.000 0.000 0.000 0.000 0.000 Not Reported Not Reported
07/12/2018 08:15 PM 90.86 61.52 37.40 95.18 48.02 15.0 Not Reported 2.24 N 2.01 N 4.92 NW No 0.000 No Precipitation 06/18/2018 03:55 AM 06/18/2018 04:00 AM 0.000 0.000 0.000 0.000 0.000 Not Reported Not Reported
07/12/2018 08:20 PM 90.14 60.98 36.32 95.18 48.02 15.0 Not Reported 3.13 N 1.34 NE 4.92 N No 0.000 No Precipitation 06/18/2018 03:55 AM 06/18/2018 04:00 AM 0.000 0.000 0.000 0.000 0.000 Not Reported Not Reported
07/12/2018 08:25 PM 90.68 61.34 37.22 95.18 48.02 15.0 Not Reported 1.12 N 2.68 N 4.92 N No 0.000 No Precipitation 06/18/2018 03:55 AM 06/18/2018 04:00 AM 0.000 0.000 0.000 0.000 0.000 Not Reported Not Reported
07/12/2018 08:30 PM 89.96 60.62 35.78 95.18 48.02 15.0 Not Reported 3.13 NW 1.57 NW 6.71 N No 0.000 No Precipitation 06/18/2018 03:55 AM 06/18/2018 04:00 AM 0.000 0.000 0.000 0.000 0.000 Not Reported Not Reported
07/12/2018 08:35 PM 89.96 61.16 37.04 95.18 48.02 15.0 Not Reported 2.24 NW 1.34 N 6.71 N No 0.000 No Precipitation 06/18/2018 03:55 AM 06/18/2018 04:00 AM 0.000 0.000 0.000 0.000 0.000 Not Reported Not Reported
07/12/2018 08:40 PM 89.42 60.44 35.60 95.18 48.02 14.0 Not Reported 2.46 N 2.91 W 4.47 N No 0.000 No Precipitation 06/18/2018 03:55 AM 06/18/2018 04:00 AM 0.000 0.000 0.000 0.000 0.000 Not Reported Not Reported
07/12/2018 08:45 PM 89.60 60.80 36.50 95.18 48.02 15.0 Not Reported 1.79 N 1.12 N 4.47 N No 0.000 No Precipitation 06/18/2018 03:55 AM 06/18/2018 04:00 AM 0.000 0.000 0.000 0.000 0.000 Not Reported Not Reported
07/12/2018 08:50 PM 89.42 60.08 34.16 95.18 48.02 13.0 Not Reported 1.57 NW 1.79 N 3.58 N No 0.000 No Precipitation 06/18/2018 03:55 AM 06/18/2018 04:00 AM 0.000 0.000 0.000 0.000 0.000 Not Reported Not Reported
07/12/2018 08:55 PM 89.06 60.26 35.24 95.18 48.02 14.0 Not Reported 1.79 N 0.89 E 3.58 N No 0.000 No Precipitation 06/18/2018 03:55 AM 06/18/2018 04:00 AM 0.000 0.000 0.000 0.000 0.000 Not Reported Not Reported
07/12/2018 09:00 PM 88.34 59.72 33.80 95.18 48.02 15.0 Not Reported 2.01 NW 2.68 N 4.70 NW No 0.000 No Precipitation 06/18/2018 03:55 AM 06/18/2018 04:00 AM 0.000 0.000 0.000 0.000 0.000 Not Reported Not Reported
07/12/2018 09:05 PM 88.34 59.36 33.08 95.18 48.02 13.0 Not Reported 1.12 NW 1.12 N 4.70 NW No 0.000 No Precipitation 06/18/2018 03:55 AM 06/18/2018 04:00 AM 0.000 0.000 0.000 0.000 0.000 Not Reported Not Reported
07/12/2018 09:10 PM 87.98 59.36 33.62 95.18 48.02 14.0 Not Reported 1.79 NW 0.22 W 3.58 NW No 0.000 No Precipitation 06/18/2018 03:55 AM 06/18/2018 04:00 AM 0.000 0.000 0.000 0.000 0.000 Not Reported Not Reported
07/12/2018 09:15 PM 88.34 59.72 34.52 95.18 48.02 15.0 Not Reported 0.45 N 1.12 N 3.58 NW No 0.000 No Precipitation 06/18/2018 03:55 AM 06/18/2018 04:00 AM 0.000 0.000 0.000 0.000 0.000 Not Reported Not Reported
07/12/2018 09:20 PM 87.08 59.18 34.16 95.18 48.02 14.0 Not Reported 0.45 N 1.12 N 2.01 W No 0.000 No Precipitation 06/18/2018 03:55 AM 06/18/2018 04:00 AM 0.000 0.000 0.000 0.000 0.000 Not Reported Not Reported
07/12/2018 09:25 PM 86.00 58.82 33.98 95.18 48.02 15.0 Not Reported 0.89 N 0.89 N 2.01 W No 0.000 No Precipitation 06/18/2018 03:55 AM 06/18/2018 04:00 AM 0.000 0.000 0.000 0.000 0.000 Not Reported Not Reported
07/12/2018 09:30 PM 84.74 58.64 35.24 95.18 48.02 16.0 Not Reported 1.34 NE 0.00 NE 1.57 N No 0.000 No Precipitation 06/18/2018 03:55 AM 06/18/2018 04:00 AM 0.000 0.000 0.000 0.000 0.000 Not Reported Not Reported
07/12/2018 09:35 PM 83.30 58.28 36.14 95.18 48.02 18.0 Not Reported 0.45 NE 0.00 NE 1.57 N No 0.000 No Precipitation 06/18/2018 03:55 AM 06/18/2018 04:00 AM 0.000 0.000 0.000 0.000 0.000 Not Reported Not Reported
07/12/2018 09:40 PM 82.94 57.92 35.60 95.18 48.02 18.0 Not Reported 0.00 N 0.00 NE 1.57 NE No 0.000 No Precipitation 06/18/2018 03:55 AM 06/18/2018 04:00 AM 0.000 0.000 0.000 0.000 0.000 Not Reported Not Reported
07/12/2018 09:45 PM 83.12 58.46 37.04 95.18 48.02 18.0 Not Reported 0.22 SE 0.67 S 1.57 NE No 0.000 No Precipitation 06/18/2018 03:55 AM 06/18/2018 04:00 AM 0.000 0.000 0.000 0.000 0.000 Not Reported Not Reported
07/12/2018 09:50 PM 79.88 57.02 36.50 95.18 48.02 21.0 Not Reported 0.89 S 2.24 S 1.12 SE No 0.000 No Precipitation 06/18/2018 03:55 AM 06/18/2018 04:00 AM 0.000 0.000 0.000 0.000 0.000 Not Reported Not Reported
07/12/2018 09:55 PM 79.52 57.02 37.04 95.18 48.02 21.0 Not Reported 2.46 S 5.14 SW 1.12 SE No 0.000 No Precipitation 06/18/2018 03:55 AM 06/18/2018 04:00 AM 0.000 0.000 0.000 0.000 0.000 Not Reported Not Reported
07/12/2018 10:00 PM 78.62 56.66 36.86 95.18 48.02 22.0 Not Reported 4.47 SW 4.25 SW 5.59 S No 0.000 No Precipitation 06/18/2018 03:55 AM 06/18/2018 04:00 AM 0.000 0.000 0.000 0.000 0.000 Not Reported Not Reported
07/12/2018 10:05 PM 78.44 56.66 37.58 95.18 48.02 23.0 Not Reported 4.03 SW 4.47 SW 5.59 S No 0.000 No Precipitation 06/18/2018 03:55 AM 06/18/2018 04:00 AM 0.000 0.000 0.000 0.000 0.000 Not Reported Not Reported
07/12/2018 10:10 PM 78.08 57.02 39.02 95.18 48.02 24.0 Not Reported 4.25 SW 4.47 SW 4.92 SW No 0.000 No Precipitation 06/18/2018 03:55 AM 06/18/2018 04:00 AM 0.000 0.000 0.000 0.000 0.000 Not Reported Not Reported
07/12/2018 10:15 PM 77.18 57.20 40.10 95.18 48.02 26.0 Not Reported 4.47 SW 4.25 SW 4.92 SW No 0.000 No Precipitation 06/18/2018 03:55 AM 06/18/2018 04:00 AM 0.000 0.000 0.000 0.000 0.000 Not Reported Not Reported
07/12/2018 10:20 PM 77.18 57.38 40.82 95.18 48.02 27.0 Not Reported 4.03 S 4.47 SW 5.59 S No 0.000 No Precipitation 06/18/2018 03:55 AM 06/18/2018 04:00 AM 0.000 0.000 0.000 0.000 0.000 Not Reported Not Reported
07/12/2018 10:25 PM 77.00 57.56 41.36 95.18 48.02 28.0 Not Reported 4.03 SW 2.68 SW 5.59 S No 0.000 No Precipitation 06/18/2018 03:55 AM 06/18/2018 04:00 AM 0.000 0.000 0.000 0.000 0.000 Not Reported Not Reported
07/12/2018 10:30 PM 76.28 57.20 41.36 95.18 48.02 28.0 Not Reported 2.68 S 2.68 SW 4.70 SW No 0.000 No Precipitation 06/18/2018 03:55 AM 06/18/2018 04:00 AM 0.000 0.000 0.000 0.000 0.000 Not Reported Not Reported
07/12/2018 10:35 PM 76.28 57.38 41.54 95.18 48.02 28.0 Not Reported 3.80 S 2.91 S 4.70 SW No 0.000 No Precipitation 06/18/2018 03:55 AM 06/18/2018 04:00 AM 0.000 0.000 0.000 0.000 0.000 Not Reported Not Reported
07/12/2018 10:40 PM 75.38 57.02 41.54 95.18 48.02 29.0 Not Reported 4.03 S 4.25 SW 4.25 S No 0.000 No Precipitation 06/18/2018 03:55 AM 06/18/2018 04:00 AM 0.000 0.000 0.000 0.000 0.000 Not Reported Not Reported
07/12/2018 10:45 PM 75.92 57.02 41.36 95.18 48.02 28.0 Not Reported 4.70 S 5.37 S 4.25 S No 0.000 No Precipitation 06/18/2018 03:55 AM 06/18/2018 04:00 AM 0.000 0.000 0.000 0.000 0.000 Not Reported Not Reported
07/12/2018 10:50 PM 76.10 57.20 41.36 95.18 48.02 28.0 Not Reported 4.92 S 5.14 S 5.59 S No 0.000 No Precipitation 06/18/2018 03:55 AM 06/18/2018 04:00 AM 0.000 0.000 0.000 0.000 0.000 Not Reported Not Reported
07/12/2018 10:55 PM 75.74 57.02 41.36 95.18 48.02 29.0 Not Reported 4.03 SW 3.13 S 5.59 S No 0.000 No Precipitation 06/18/2018 03:55 AM 06/18/2018 04:00 AM 0.000 0.000 0.000 0.000 0.000 Not Reported Not Reported
07/12/2018 11:00 PM 75.38 57.02 41.54 95.18 48.02 29.0 Not Reported 3.80 S 3.36 S 5.14 S No 0.000 No Precipitation 06/18/2018 03:55 AM 06/18/2018 04:00 AM 0.000 0.000 0.000 0.000 0.000 Not Reported Not Reported
07/12/2018 11:05 PM 74.84 56.66 41.54 95.18 48.02 30.0 Not Reported 3.13 S 3.36 S 5.14 S No 0.000 No Precipitation 06/18/2018 03:55 AM 06/18/2018 04:00 AM 0.000 0.000 0.000 0.000 0.000 Not Reported Not Reported
07/12/2018 11:10 PM 74.30 56.66 41.54 95.18 48.02 30.0 Not Reported 3.58 S 4.03 S 5.14 S No 0.000 No Precipitation 06/18/2018 03:55 AM 06/18/2018 04:00 AM 0.000 0.000 0.000 0.000 0.000 Not Reported Not Reported
07/12/2018 11:15 PM 74.30 56.66 41.72 95.18 48.02 30.0 Not Reported 3.36 S 3.80 S 5.14 S No 0.000 No Precipitation 06/18/2018 03:55 AM 06/18/2018 04:00 AM 0.000 0.000 0.000 0.000 0.000 Not Reported Not Reported
07/12/2018 11:20 PM 74.30 56.66 41.72 95.18 48.02 30.0 Not Reported 4.25 S 4.70 S 4.25 S No 0.000 No Precipitation 06/18/2018 03:55 AM 06/18/2018 04:00 AM 0.000 0.000 0.000 0.000 0.000 Not Reported Not Reported
07/12/2018 11:25 PM 73.94 56.48 41.72 95.18 48.02 31.0 Not Reported 4.25 S 3.13 SW 4.25 S No 0.000 No Precipitation 06/18/2018 03:55 AM 06/18/2018 04:00 AM 0.000 0.000 0.000 0.000 0.000 Not Reported Not Reported
07/12/2018 11:30 PM 73.76 56.48 41.90 95.18 48.02 31.0 Not Reported 3.36 S 4.25 S 5.14 S No 0.000 No Precipitation 06/18/2018 03:55 AM 06/18/2018 04:00 AM 0.000 0.000 0.000 0.000 0.000 Not Reported Not Reported
07/12/2018 11:35 PM 73.58 56.30 41.72 95.18 48.02 31.0 Not Reported 4.03 S 3.36 S 5.14 S No 0.000 No Precipitation 06/18/2018 03:55 AM 06/18/2018 04:00 AM 0.000 0.000 0.000 0.000 0.000 Not Reported Not Reported
07/12/2018 11:40 PM 72.86 56.12 41.72 95.18 48.02 32.0 Not Reported 4.47 S 4.47 S 4.92 S No 0.000 No Precipitation 06/18/2018 03:55 AM 06/18/2018 04:00 AM 0.000 0.000 0.000 0.000 0.000 Not Reported Not Reported
07/12/2018 11:45 PM 72.86 55.94 41.72 95.18 48.02 32.0 Not Reported 4.25 S 3.58 SW 4.92 S No 0.000 No Precipitation 06/18/2018 03:55 AM 06/18/2018 04:00 AM 0.000 0.000 0.000 0.000 0.000 Not Reported Not Reported
07/12/2018 11:50 PM 72.50 55.94 41.54 95.18 48.02 32.0 Not Reported 3.13 S 2.68 S 5.14 S No 0.000 No Precipitation 06/18/2018 03:55 AM 06/18/2018 04:00 AM 0.000 0.000 0.000 0.000 0.000 Not Reported Not Reported
07/12/2018 11:55 PM 72.50 55.76 41.54 95.18 48.02 32.0 Not Reported 3.80 SW 4.03 S 5.14 S No 0.000 No Precipitation 06/18/2018 03:55 AM 06/18/2018 04:00 AM 0.000 0.000 0.000 0.000 0.000 Not Reported Not Reported